TAF and METAR

METAR for Lanzarote Airport

GCRR 311230Z 15008KT 9999 FEW035 SCT045 24/19 Q1014
Report created 31. mai 14:30
wind 8 knots from SSE (150°) visibility > 10km some clouds (~25% cover) at 3500 feet scattered clouds (~50% cover) at 4500 feet Temperature 24° with dewpoint at 19° (Humidity 73.67%) Pressure 1014 hPa

TAF for Lanzarote Airport

TAF GCRR 310800Z 3109/0109 36005KT 9999 SCT035 TX27/3114Z TN20/0106Z BECMG 3110/3112 14010KT
Report created 31. mai 10:00

between 31. mai 11:00 - 1. mai 11:00

wind 5 knots from N (360°) visibility > 10km scattered clouds (~50% cover) at 3500 feet Max temperature 27° expected today at around 16 o'clock Min temperature 20° expected today at around 08 o'clock

becoming between 31. mai 12:00 - 31. mai 14:00

wind 10 knots from SE (140°)